sensor_id;sensor_type;location;lat;lon;timestamp;temperature;humidity
57719;DHT22;43561;50.090;18.522;2022-07-06T00:06:13;16.10;99.90
57719;DHT22;43561;50.090;18.522;2022-07-06T00:16:15;16.00;99.90
57719;DHT22;43561;50.090;18.522;2022-07-06T00:26:17;16.00;99.90
57719;DHT22;43561;50.090;18.522;2022-07-06T00:36:19;16.00;99.90
57719;DHT22;43561;50.090;18.522;2022-07-06T00:46:30;15.90;99.90
57719;DHT22;43561;50.090;18.522;2022-07-06T00:56:34;15.90;99.90
57719;DHT22;43561;50.090;18.522;2022-07-06T01:06:37;16.00;99.90
57719;DHT22;43561;50.090;18.522;2022-07-06T01:16:40;15.80;99.90
57719;DHT22;43561;50.090;18.522;2022-07-06T01:26:42;15.80;99.90
57719;DHT22;43561;50.090;18.522;2022-07-06T01:36:44;15.70;99.90
57719;DHT22;43561;50.090;18.522;2022-07-06T01:46:46;15.70;99.90
57719;DHT22;43561;50.090;18.522;2022-07-06T01:56:48;15.50;99.90
57719;DHT22;43561;50.090;18.522;2022-07-06T02:06:51;15.50;99.90
57719;DHT22;43561;50.090;18.522;2022-07-06T02:16:54;15.60;99.90
57719;DHT22;43561;50.090;18.522;2022-07-06T02:26:56;15.60;99.90
57719;DHT22;43561;50.090;18.522;2022-07-06T02:36:59;15.60;99.90
57719;DHT22;43561;50.090;18.522;2022-07-06T02:47:02;15.50;99.90
57719;DHT22;43561;50.090;18.522;2022-07-06T02:57:04;15.30;99.90
57719;DHT22;43561;50.090;18.522;2022-07-06T03:07:06;15.40;99.90
57719;DHT22;43561;50.090;18.522;2022-07-06T03:17:08;15.50;99.90
57719;DHT22;43561;50.090;18.522;2022-07-06T03:27:11;15.20;99.90
57719;DHT22;43561;50.090;18.522;2022-07-06T03:37:13;15.20;99.90
57719;DHT22;43561;50.090;18.522;2022-07-06T03:47:17;15.10;99.90
57719;DHT22;43561;50.090;18.522;2022-07-06T03:57:19;14.80;99.90
57719;DHT22;43561;50.090;18.522;2022-07-06T04:07:22;14.90;99.90
57719;DHT22;43561;50.090;18.522;2022-07-06T04:17:24;14.90;99.90
57719;DHT22;43561;50.090;18.522;2022-07-06T04:27:27;15.80;99.90
57719;DHT22;43561;50.090;18.522;2022-07-06T04:37:29;16.50;99.90
57719;DHT22;43561;50.090;18.522;2022-07-06T04:47:31;17.70;99.90
57719;DHT22;43561;50.090;18.522;2022-07-06T04:57:33;17.50;99.90
57719;DHT22;43561;50.090;18.522;2022-07-06T05:07:37;18.30;99.90
57719;DHT22;43561;50.090;18.522;2022-07-06T05:17:39;17.50;99.90
57719;DHT22;43561;50.090;18.522;2022-07-06T05:27:42;17.90;99.90
57719;DHT22;43561;50.090;18.522;2022-07-06T05:37:44;19.80;99.90
57719;DHT22;43561;50.090;18.522;2022-07-06T05:47:47;19.30;99.90
57719;DHT22;43561;50.090;18.522;2022-07-06T05:57:49;18.40;99.90
57719;DHT22;43561;50.090;18.522;2022-07-06T06:07:52;17.90;99.90
57719;DHT22;43561;50.090;18.522;2022-07-06T06:17:58;17.60;99.90
57719;DHT22;43561;50.090;18.522;2022-07-06T06:28:05;17.40;99.90
57719;DHT22;43561;50.090;18.522;2022-07-06T06:38:07;16.80;99.90
57719;DHT22;43561;50.090;18.522;2022-07-06T06:48:09;17.00;99.90
57719;DHT22;43561;50.090;18.522;2022-07-06T06:58:18;16.30;99.90
57719;DHT22;43561;50.090;18.522;2022-07-06T07:08:20;16.90;99.90
57719;DHT22;43561;50.090;18.522;2022-07-06T07:18:23;16.80;99.90
57719;DHT22;43561;50.090;18.522;2022-07-06T07:28:26;17.30;99.90
57719;DHT22;43561;50.090;18.522;2022-07-06T07:38:28;17.10;99.90
57719;DHT22;43561;50.090;18.522;2022-07-06T07:48:30;16.80;99.90
57719;DHT22;43561;50.090;18.522;2022-07-06T07:58:32;16.40;99.90
57719;DHT22;43561;50.090;18.522;2022-07-06T08:08:35;16.10;99.90
57719;DHT22;43561;50.090;18.522;2022-07-06T08:18:37;16.20;99.90
57719;DHT22;43561;50.090;18.522;2022-07-06T08:28:41;16.40;99.90
57719;DHT22;43561;50.090;18.522;2022-07-06T08:38:43;16.80;99.90
57719;DHT22;43561;50.090;18.522;2022-07-06T08:48:48;16.80;99.90
57719;DHT22;43561;50.090;18.522;2022-07-06T08:58:50;16.70;99.90
57719;DHT22;43561;50.090;18.522;2022-07-06T09:08:56;17.20;99.90
57719;DHT22;43561;50.090;18.522;2022-07-06T09:18:59;18.40;99.90
57719;DHT22;43561;50.090;18.522;2022-07-06T09:29:01;20.60;99.90
57719;DHT22;43561;50.090;18.522;2022-07-06T09:39:24;19.10;99.90
57719;DHT22;43561;50.090;18.522;2022-07-06T09:49:27;20.30;99.90
57719;DHT22;43561;50.090;18.522;2022-07-06T09:59:31;20.60;99.90
57719;DHT22;43561;50.090;18.522;2022-07-06T10:09:33;21.90;99.90
57719;DHT22;43561;50.090;18.522;2022-07-06T10:19:38;20.70;99.90
57719;DHT22;43561;50.090;18.522;2022-07-06T10:29:40;21.40;99.40
57719;DHT22;43561;50.090;18.522;2022-07-06T10:39:47;20.60;98.40
57719;DHT22;43561;50.090;18.522;2022-07-06T10:49:49;20.10;99.10
57719;DHT22;43561;50.090;18.522;2022-07-06T11:00:03;20.20;99.80
57719;DHT22;43561;50.090;18.522;2022-07-06T11:10:06;20.00;98.90
57719;DHT22;43561;50.090;18.522;2022-07-06T11:20:12;19.50;99.90
57719;DHT22;43561;50.090;18.522;2022-07-06T11:30:15;20.50;97.40
57719;DHT22;43561;50.090;18.522;2022-07-06T11:40:18;21.50;94.50
57719;DHT22;43561;50.090;18.522;2022-07-06T11:50:20;22.40;91.80
57719;DHT22;43561;50.090;18.522;2022-07-06T12:00:22;22.30;91.90
57719;DHT22;43561;50.090;18.522;2022-07-06T12:10:33;21.70;91.20
57719;DHT22;43561;50.090;18.522;2022-07-06T12:20:35;22.20;92.80
57719;DHT22;43561;50.090;18.522;2022-07-06T12:30:45;22.70;90.20
57719;DHT22;43561;50.090;18.522;2022-07-06T12:40:47;22.00;89.90
57719;DHT22;43561;50.090;18.522;2022-07-06T12:50:50;20.60;90.10
57719;DHT22;43561;50.090;18.522;2022-07-06T13:00:52;21.00;86.10
57719;DHT22;43561;50.090;18.522;2022-07-06T13:10:54;20.90;86.10
57719;DHT22;43561;50.090;18.522;2022-07-06T13:21:06;20.90;84.20
57719;DHT22;43561;50.090;18.522;2022-07-06T13:31:10;21.60;83.90
57719;DHT22;43561;50.090;18.522;2022-07-06T13:41:13;21.30;79.70
57719;DHT22;43561;50.090;18.522;2022-07-06T13:51:15;22.70;74.90
57719;DHT22;43561;50.090;18.522;2022-07-06T14:01:18;22.10;72.60
57719;DHT22;43561;50.090;18.522;2022-07-06T14:11:30;22.30;72.20
57719;DHT22;43561;50.090;18.522;2022-07-06T14:21:32;22.90;67.00
57719;DHT22;43561;50.090;18.522;2022-07-06T14:31:34;22.70;67.00
57719;DHT22;43561;50.090;18.522;2022-07-06T14:41:36;23.10;66.80
57719;DHT22;43561;50.090;18.522;2022-07-06T14:51:38;22.20;64.60
57719;DHT22;43561;50.090;18.522;2022-07-06T15:01:40;22.70;62.20
57719;DHT22;43561;50.090;18.522;2022-07-06T15:11:42;22.40;58.70
57719;DHT22;43561;50.090;18.522;2022-07-06T15:21:44;22.50;60.20
57719;DHT22;43561;50.090;18.522;2022-07-06T15:31:46;22.10;60.00
57719;DHT22;43561;50.090;18.522;2022-07-06T15:41:48;20.20;70.50
57719;DHT22;43561;50.090;18.522;2022-07-06T15:51:50;19.90;72.60
57719;DHT22;43561;50.090;18.522;2022-07-06T16:01:52;19.80;75.00
57719;DHT22;43561;50.090;18.522;2022-07-06T16:11:55;19.80;75.30
57719;DHT22;43561;50.090;18.522;2022-07-06T16:21:57;19.60;75.30
57719;DHT22;43561;50.090;18.522;2022-07-06T16:31:59;19.60;77.00
57719;DHT22;43561;50.090;18.522;2022-07-06T16:42:02;20.00;74.60
57719;DHT22;43561;50.090;18.522;2022-07-06T16:52:05;19.70;75.80
57719;DHT22;43561;50.090;18.522;2022-07-06T17:02:07;19.80;71.70
57719;DHT22;43561;50.090;18.522;2022-07-06T17:12:09;19.70;73.10
57719;DHT22;43561;50.090;18.522;2022-07-06T17:22:11;19.60;72.90
57719;DHT22;43561;50.090;18.522;2022-07-06T17:32:13;19.60;73.00
57719;DHT22;43561;50.090;18.522;2022-07-06T17:42:16;19.50;72.20
57719;DHT22;43561;50.090;18.522;2022-07-06T17:52:18;19.60;73.90
57719;DHT22;43561;50.090;18.522;2022-07-06T18:02:19;19.50;72.50
57719;DHT22;43561;50.090;18.522;2022-07-06T18:12:28;19.50;72.10
57719;DHT22;43561;50.090;18.522;2022-07-06T18:22:30;19.20;72.70
57719;DHT22;43561;50.090;18.522;2022-07-06T18:32:32;19.20;73.50
57719;DHT22;43561;50.090;18.522;2022-07-06T18:42:34;19.10;74.10
57719;DHT22;43561;50.090;18.522;2022-07-06T18:52:36;19.00;74.50
57719;DHT22;43561;50.090;18.522;2022-07-06T19:02:38;18.80;74.90
57719;DHT22;43561;50.090;18.522;2022-07-06T19:12:40;18.70;79.70
57719;DHT22;43561;50.090;18.522;2022-07-06T19:22:43;18.30;84.20
57719;DHT22;43561;50.090;18.522;2022-07-06T19:32:45;17.70;92.00
57719;DHT22;43561;50.090;18.522;2022-07-06T19:42:50;17.40;99.90
57719;DHT22;43561;50.090;18.522;2022-07-06T19:52:52;17.40;99.90
57719;DHT22;43561;50.090;18.522;2022-07-06T20:02:54;17.20;99.90
57719;DHT22;43561;50.090;18.522;2022-07-06T20:13:00;17.00;99.90
57719;DHT22;43561;50.090;18.522;2022-07-06T20:23:04;16.60;99.90
57719;DHT22;43561;50.090;18.522;2022-07-06T20:33:06;16.60;99.90
57719;DHT22;43561;50.090;18.522;2022-07-06T20:43:08;16.30;99.90
57719;DHT22;43561;50.090;18.522;2022-07-06T20:53:26;16.10;99.90
57719;DHT22;43561;50.090;18.522;2022-07-06T21:03:29;16.00;99.90
57719;DHT22;43561;50.090;18.522;2022-07-06T21:13:31;15.80;99.90
57719;DHT22;43561;50.090;18.522;2022-07-06T21:23:33;15.90;99.90
57719;DHT22;43561;50.090;18.522;2022-07-06T21:33:35;15.80;99.90
57719;DHT22;43561;50.090;18.522;2022-07-06T21:43:37;15.60;99.90
57719;DHT22;43561;50.090;18.522;2022-07-06T21:53:39;15.90;99.90
57719;DHT22;43561;50.090;18.522;2022-07-06T22:03:42;15.70;99.90
57719;DHT22;43561;50.090;18.522;2022-07-06T22:13:44;15.50;99.90
57719;DHT22;43561;50.090;18.522;2022-07-06T22:23:46;15.40;99.90
57719;DHT22;43561;50.090;18.522;2022-07-06T22:33:48;15.10;99.90
57719;DHT22;43561;50.090;18.522;2022-07-06T22:43:51;14.90;99.90
57719;DHT22;43561;50.090;18.522;2022-07-06T22:53:53;14.70;99.90
57719;DHT22;43561;50.090;18.522;2022-07-06T23:03:55;14.50;99.90
57719;DHT22;43561;50.090;18.522;2022-07-06T23:13:57;14.30;99.90
57719;DHT22;43561;50.090;18.522;2022-07-06T23:23:59;14.40;99.90
57719;DHT22;43561;50.090;18.522;2022-07-06T23:34:01;14.40;99.90
57719;DHT22;43561;50.090;18.522;2022-07-06T23:44:03;14.00;99.90
57719;DHT22;43561;50.090;18.522;2022-07-06T23:54:05;13.80;99.90
